sensor_id;sensor_type;location;lat;lon;timestamp;P1;durP1;ratioP1;P2;durP2;ratioP2
77040;SDS011;65974;42.664;23.264;2023-05-23T00:01:19;10.20;;;6.68;;
77040;SDS011;65974;42.664;23.264;2023-05-23T00:03:45;14.05;;;7.78;;
77040;SDS011;65974;42.664;23.264;2023-05-23T00:06:11;11.93;;;8.38;;
77040;SDS011;65974;42.664;23.264;2023-05-23T00:08:36;11.15;;;7.03;;
77040;SDS011;65974;42.664;23.264;2023-05-23T00:11:02;16.40;;;8.43;;
77040;SDS011;65974;42.664;23.264;2023-05-23T00:13:27;11.38;;;7.20;;
77040;SDS011;65974;42.664;23.264;2023-05-23T00:15:53;10.25;;;6.45;;
77040;SDS011;65974;42.664;23.264;2023-05-23T00:18:18;11.35;;;7.03;;
77040;SDS011;65974;42.664;23.264;2023-05-23T00:20:44;13.60;;;7.28;;
77040;SDS011;65974;42.664;23.264;2023-05-23T00:23:11;8.40;;;5.72;;
77040;SDS011;65974;42.664;23.264;2023-05-23T00:25:42;7.95;;;5.18;;
77040;SDS011;65974;42.664;23.264;2023-05-23T00:28:12;10.43;;;6.13;;
77040;SDS011;65974;42.664;23.264;2023-05-23T00:30:38;13.15;;;6.38;;
77040;SDS011;65974;42.664;23.264;2023-05-23T00:33:04;8.48;;;5.88;;
77040;SDS011;65974;42.664;23.264;2023-05-23T00:35:30;12.02;;;7.07;;
77040;SDS011;65974;42.664;23.264;2023-05-23T00:37:55;10.65;;;6.07;;
77040;SDS011;65974;42.664;23.264;2023-05-23T00:40:21;10.73;;;6.15;;
77040;SDS011;65974;42.664;23.264;2023-05-23T00:42:47;11.30;;;6.25;;
77040;SDS011;65974;42.664;23.264;2023-05-23T00:45:13;8.30;;;4.95;;
77040;SDS011;65974;42.664;23.264;2023-05-23T00:47:40;8.20;;;4.90;;
77040;SDS011;65974;42.664;23.264;2023-05-23T00:50:07;6.95;;;4.13;;
77040;SDS011;65974;42.664;23.264;2023-05-23T00:52:35;7.97;;;5.55;;
77040;SDS011;65974;42.664;23.264;2023-05-23T00:55:02;8.73;;;5.45;;
77040;SDS011;65974;42.664;23.264;2023-05-23T00:57:28;7.60;;;4.90;;
77040;SDS011;65974;42.664;23.264;2023-05-23T00:59:53;7.30;;;4.32;;
77040;SDS011;65974;42.664;23.264;2023-05-23T01:02:19;8.00;;;4.30;;
77040;SDS011;65974;42.664;23.264;2023-05-23T01:04:45;8.07;;;3.78;;
77040;SDS011;65974;42.664;23.264;2023-05-23T01:07:18;8.05;;;4.03;;
77040;SDS011;65974;42.664;23.264;2023-05-23T01:09:44;7.38;;;3.75;;
77040;SDS011;65974;42.664;23.264;2023-05-23T01:12:24;9.27;;;4.22;;
77040;SDS011;65974;42.664;23.264;2023-05-23T01:17:31;6.82;;;3.38;;
77040;SDS011;65974;42.664;23.264;2023-05-23T01:20:10;8.95;;;4.32;;
77040;SDS011;65974;42.664;23.264;2023-05-23T01:28:24;8.18;;;4.82;;
77040;SDS011;65974;42.664;23.264;2023-05-23T01:30:54;5.45;;;3.47;;
77040;SDS011;65974;42.664;23.264;2023-05-23T01:33:22;7.47;;;4.75;;
77040;SDS011;65974;42.664;23.264;2023-05-23T01:35:50;6.93;;;4.57;;
77040;SDS011;65974;42.664;23.264;2023-05-23T01:38:16;6.97;;;4.25;;
77040;SDS011;65974;42.664;23.264;2023-05-23T01:40:42;6.18;;;4.28;;
77040;SDS011;65974;42.664;23.264;2023-05-23T01:43:07;6.15;;;3.90;;
77040;SDS011;65974;42.664;23.264;2023-05-23T01:45:33;5.53;;;3.70;;
77040;SDS011;65974;42.664;23.264;2023-05-23T01:47:59;6.97;;;3.97;;
77040;SDS011;65974;42.664;23.264;2023-05-23T01:50:26;6.63;;;4.65;;
77040;SDS011;65974;42.664;23.264;2023-05-23T01:52:52;6.22;;;4.03;;
77040;SDS011;65974;42.664;23.264;2023-05-23T01:55:19;9.43;;;4.47;;
77040;SDS011;65974;42.664;23.264;2023-05-23T01:57:50;7.35;;;3.50;;
77040;SDS011;65974;42.664;23.264;2023-05-23T02:00:18;7.72;;;4.00;;
77040;SDS011;65974;42.664;23.264;2023-05-23T02:02:44;9.95;;;4.60;;
77040;SDS011;65974;42.664;23.264;2023-05-23T02:05:10;7.75;;;4.45;;
77040;SDS011;65974;42.664;23.264;2023-05-23T02:07:35;7.95;;;4.13;;
77040;SDS011;65974;42.664;23.264;2023-05-23T02:10:02;6.63;;;3.90;;
77040;SDS011;65974;42.664;23.264;2023-05-23T02:12:28;7.07;;;5.03;;
77040;SDS011;65974;42.664;23.264;2023-05-23T02:14:53;8.15;;;4.03;;
77040;SDS011;65974;42.664;23.264;2023-05-23T02:17:19;4.88;;;3.85;;
77040;SDS011;65974;42.664;23.264;2023-05-23T02:19:46;7.60;;;4.50;;
77040;SDS011;65974;42.664;23.264;2023-05-23T02:22:12;7.05;;;3.75;;
77040;SDS011;65974;42.664;23.264;2023-05-23T02:24:38;8.15;;;4.45;;
77040;SDS011;65974;42.664;23.264;2023-05-23T02:27:03;8.98;;;4.45;;
77040;SDS011;65974;42.664;23.264;2023-05-23T02:29:29;7.75;;;3.70;;
77040;SDS011;65974;42.664;23.264;2023-05-23T02:31:55;6.28;;;4.57;;
77040;SDS011;65974;42.664;23.264;2023-05-23T02:34:20;6.47;;;3.92;;
77040;SDS011;65974;42.664;23.264;2023-05-23T02:36:46;10.95;;;4.63;;
77040;SDS011;65974;42.664;23.264;2023-05-23T02:39:11;6.20;;;3.90;;
77040;SDS011;65974;42.664;23.264;2023-05-23T02:41:37;5.10;;;3.80;;
77040;SDS011;65974;42.664;23.264;2023-05-23T02:44:02;4.20;;;2.83;;
77040;SDS011;65974;42.664;23.264;2023-05-23T02:46:28;8.43;;;4.57;;
77040;SDS011;65974;42.664;23.264;2023-05-23T02:48:53;6.57;;;4.30;;
77040;SDS011;65974;42.664;23.264;2023-05-23T02:51:19;6.00;;;3.60;;
77040;SDS011;65974;42.664;23.264;2023-05-23T02:53:45;10.00;;;4.57;;
77040;SDS011;65974;42.664;23.264;2023-05-23T02:56:10;9.45;;;4.22;;
77040;SDS011;65974;42.664;23.264;2023-05-23T02:58:37;9.00;;;4.65;;
77040;SDS011;65974;42.664;23.264;2023-05-23T03:01:04;7.88;;;4.85;;
77040;SDS011;65974;42.664;23.264;2023-05-23T03:03:29;5.85;;;4.07;;
77040;SDS011;65974;42.664;23.264;2023-05-23T03:05:56;9.02;;;5.47;;
77040;SDS011;65974;42.664;23.264;2023-05-23T03:08:22;8.90;;;5.22;;
77040;SDS011;65974;42.664;23.264;2023-05-23T03:10:48;8.57;;;4.20;;
77040;SDS011;65974;42.664;23.264;2023-05-23T03:13:13;10.07;;;5.90;;
77040;SDS011;65974;42.664;23.264;2023-05-23T03:15:40;12.45;;;7.88;;
77040;SDS011;65974;42.664;23.264;2023-05-23T03:18:06;13.27;;;6.97;;
77040;SDS011;65974;42.664;23.264;2023-05-23T03:20:32;8.82;;;5.65;;
77040;SDS011;65974;42.664;23.264;2023-05-23T03:22:58;13.23;;;6.32;;
77040;SDS011;65974;42.664;23.264;2023-05-23T03:25:23;11.95;;;6.13;;
77040;SDS011;65974;42.664;23.264;2023-05-23T03:27:49;13.27;;;6.38;;
77040;SDS011;65974;42.664;23.264;2023-05-23T03:30:14;16.85;;;7.18;;
77040;SDS011;65974;42.664;23.264;2023-05-23T03:32:40;13.00;;;7.10;;
77040;SDS011;65974;42.664;23.264;2023-05-23T03:35:06;14.20;;;7.22;;
77040;SDS011;65974;42.664;23.264;2023-05-23T03:37:32;10.68;;;6.38;;
77040;SDS011;65974;42.664;23.264;2023-05-23T03:39:57;10.13;;;5.25;;
77040;SDS011;65974;42.664;23.264;2023-05-23T03:42:22;13.07;;;6.65;;
77040;SDS011;65974;42.664;23.264;2023-05-23T03:44:48;11.50;;;5.38;;
77040;SDS011;65974;42.664;23.264;2023-05-23T03:47:13;9.98;;;6.10;;
77040;SDS011;65974;42.664;23.264;2023-05-23T03:49:39;10.68;;;4.78;;
77040;SDS011;65974;42.664;23.264;2023-05-23T03:52:06;12.48;;;5.85;;
77040;SDS011;65974;42.664;23.264;2023-05-23T03:54:31;11.15;;;7.28;;
77040;SDS011;65974;42.664;23.264;2023-05-23T03:56:57;8.52;;;4.93;;
77040;SDS011;65974;42.664;23.264;2023-05-23T03:59:22;7.55;;;5.80;;
77040;SDS011;65974;42.664;23.264;2023-05-23T04:01:47;13.00;;;6.82;;
77040;SDS011;65974;42.664;23.264;2023-05-23T04:04:13;10.07;;;6.40;;
77040;SDS011;65974;42.664;23.264;2023-05-23T04:06:38;9.98;;;6.75;;
77040;SDS011;65974;42.664;23.264;2023-05-23T04:09:04;15.05;;;8.48;;
77040;SDS011;65974;42.664;23.264;2023-05-23T04:11:30;14.82;;;5.95;;
77040;SDS011;65974;42.664;23.264;2023-05-23T04:13:56;11.35;;;6.15;;
77040;SDS011;65974;42.664;23.264;2023-05-23T04:16:22;13.60;;;6.45;;
77040;SDS011;65974;42.664;23.264;2023-05-23T04:18:48;8.10;;;6.07;;
77040;SDS011;65974;42.664;23.264;2023-05-23T04:21:14;14.00;;;7.38;;
77040;SDS011;65974;42.664;23.264;2023-05-23T04:23:39;13.57;;;7.55;;
77040;SDS011;65974;42.664;23.264;2023-05-23T04:26:05;17.42;;;9.68;;
77040;SDS011;65974;42.664;23.264;2023-05-23T04:28:31;14.15;;;8.88;;
77040;SDS011;65974;42.664;23.264;2023-05-23T04:30:56;31.98;;;15.82;;
77040;SDS011;65974;42.664;23.264;2023-05-23T04:33:22;30.67;;;13.82;;
77040;SDS011;65974;42.664;23.264;2023-05-23T04:35:48;39.10;;;19.73;;
77040;SDS011;65974;42.664;23.264;2023-05-23T04:38:14;31.80;;;14.45;;
77040;SDS011;65974;42.664;23.264;2023-05-23T04:40:39;18.17;;;11.70;;
77040;SDS011;65974;42.664;23.264;2023-05-23T04:43:05;25.63;;;13.88;;
77040;SDS011;65974;42.664;23.264;2023-05-23T04:45:33;31.42;;;14.32;;
77040;SDS011;65974;42.664;23.264;2023-05-23T04:47:58;29.02;;;16.05;;
77040;SDS011;65974;42.664;23.264;2023-05-23T04:50:24;29.17;;;15.02;;
77040;SDS011;65974;42.664;23.264;2023-05-23T04:52:49;29.10;;;15.65;;
77040;SDS011;65974;42.664;23.264;2023-05-23T04:55:15;25.73;;;14.77;;
77040;SDS011;65974;42.664;23.264;2023-05-23T04:57:40;29.05;;;15.02;;
77040;SDS011;65974;42.664;23.264;2023-05-23T05:00:06;24.30;;;14.30;;
77040;SDS011;65974;42.664;23.264;2023-05-23T05:02:34;26.77;;;14.18;;
77040;SDS011;65974;42.664;23.264;2023-05-23T05:05:00;28.52;;;15.55;;
77040;SDS011;65974;42.664;23.264;2023-05-23T05:07:26;36.50;;;14.00;;
77040;SDS011;65974;42.664;23.264;2023-05-23T05:09:53;31.13;;;15.40;;
77040;SDS011;65974;42.664;23.264;2023-05-23T05:12:19;30.48;;;12.75;;
77040;SDS011;65974;42.664;23.264;2023-05-23T05:14:44;33.88;;;14.38;;
77040;SDS011;65974;42.664;23.264;2023-05-23T05:17:09;25.27;;;13.90;;
77040;SDS011;65974;42.664;23.264;2023-05-23T05:19:35;32.20;;;16.13;;
77040;SDS011;65974;42.664;23.264;2023-05-23T05:22:01;25.77;;;14.25;;
77040;SDS011;65974;42.664;23.264;2023-05-23T05:24:26;24.42;;;13.63;;
77040;SDS011;65974;42.664;23.264;2023-05-23T05:26:53;24.17;;;13.27;;
77040;SDS011;65974;42.664;23.264;2023-05-23T05:29:18;28.90;;;14.93;;
77040;SDS011;65974;42.664;23.264;2023-05-23T05:31:44;30.65;;;15.35;;
77040;SDS011;65974;42.664;23.264;2023-05-23T05:34:10;27.50;;;15.07;;
77040;SDS011;65974;42.664;23.264;2023-05-23T05:36:37;25.38;;;13.98;;
77040;SDS011;65974;42.664;23.264;2023-05-23T05:39:09;27.15;;;13.93;;
77040;SDS011;65974;42.664;23.264;2023-05-23T05:41:35;28.75;;;17.05;;
77040;SDS011;65974;42.664;23.264;2023-05-23T05:44:00;31.25;;;16.23;;
77040;SDS011;65974;42.664;23.264;2023-05-23T05:46:26;32.22;;;15.90;;
77040;SDS011;65974;42.664;23.264;2023-05-23T05:48:51;28.90;;;17.08;;
77040;SDS011;65974;42.664;23.264;2023-05-23T05:51:16;32.63;;;17.90;;
77040;SDS011;65974;42.664;23.264;2023-05-23T05:53:42;27.55;;;16.38;;
77040;SDS011;65974;42.664;23.264;2023-05-23T05:56:07;28.25;;;16.77;;
77040;SDS011;65974;42.664;23.264;2023-05-23T05:58:33;28.77;;;15.65;;
77040;SDS011;65974;42.664;23.264;2023-05-23T06:00:58;29.45;;;15.73;;
77040;SDS011;65974;42.664;23.264;2023-05-23T06:03:24;38.72;;;19.83;;
77040;SDS011;65974;42.664;23.264;2023-05-23T06:05:50;32.95;;;16.38;;
77040;SDS011;65974;42.664;23.264;2023-05-23T06:08:16;30.67;;;16.90;;
77040;SDS011;65974;42.664;23.264;2023-05-23T06:10:41;36.95;;;17.42;;
77040;SDS011;65974;42.664;23.264;2023-05-23T06:13:07;33.58;;;17.75;;
77040;SDS011;65974;42.664;23.264;2023-05-23T06:15:33;28.60;;;15.55;;
77040;SDS011;65974;42.664;23.264;2023-05-23T06:17:58;30.05;;;15.65;;
77040;SDS011;65974;42.664;23.264;2023-05-23T06:20:23;30.48;;;18.30;;
77040;SDS011;65974;42.664;23.264;2023-05-23T06:22:49;33.65;;;17.80;;
77040;SDS011;65974;42.664;23.264;2023-05-23T06:25:14;31.30;;;17.77;;
77040;SDS011;65974;42.664;23.264;2023-05-23T06:27:40;38.05;;;17.38;;
77040;SDS011;65974;42.664;23.264;2023-05-23T06:30:05;32.92;;;17.73;;
77040;SDS011;65974;42.664;23.264;2023-05-23T06:32:31;28.73;;;17.27;;
77040;SDS011;65974;42.664;23.264;2023-05-23T06:34:57;31.75;;;16.23;;
77040;SDS011;65974;42.664;23.264;2023-05-23T06:37:22;31.13;;;17.58;;
77040;SDS011;65974;42.664;23.264;2023-05-23T06:39:47;31.42;;;17.45;;
77040;SDS011;65974;42.664;23.264;2023-05-23T06:42:13;34.20;;;18.00;;
77040;SDS011;65974;42.664;23.264;2023-05-23T06:44:39;27.30;;;14.48;;
77040;SDS011;65974;42.664;23.264;2023-05-23T06:47:05;29.42;;;16.77;;
77040;SDS011;65974;42.664;23.264;2023-05-23T06:49:30;32.95;;;16.38;;
77040;SDS011;65974;42.664;23.264;2023-05-23T06:51:55;28.45;;;15.60;;
77040;SDS011;65974;42.664;23.264;2023-05-23T06:54:21;30.23;;;17.15;;
77040;SDS011;65974;42.664;23.264;2023-05-23T06:56:46;27.27;;;16.83;;
77040;SDS011;65974;42.664;23.264;2023-05-23T06:59:12;32.03;;;17.02;;
77040;SDS011;65974;42.664;23.264;2023-05-23T07:01:37;29.52;;;13.88;;
77040;SDS011;65974;42.664;23.264;2023-05-23T07:04:03;27.33;;;15.10;;
77040;SDS011;65974;42.664;23.264;2023-05-23T07:06:28;23.48;;;12.32;;
77040;SDS011;65974;42.664;23.264;2023-05-23T07:08:55;25.70;;;14.25;;
77040;SDS011;65974;42.664;23.264;2023-05-23T07:11:20;28.50;;;15.35;;
77040;SDS011;65974;42.664;23.264;2023-05-23T07:13:46;21.88;;;12.05;;
77040;SDS011;65974;42.664;23.264;2023-05-23T07:16:12;26.88;;;15.20;;
77040;SDS011;65974;42.664;23.264;2023-05-23T07:18:37;35.42;;;19.40;;
77040;SDS011;65974;42.664;23.264;2023-05-23T07:21:03;31.58;;;17.23;;
77040;SDS011;65974;42.664;23.264;2023-05-23T07:23:32;30.67;;;16.33;;
77040;SDS011;65974;42.664;23.264;2023-05-23T07:26:00;29.52;;;16.23;;
77040;SDS011;65974;42.664;23.264;2023-05-23T07:28:27;33.97;;;15.27;;
77040;SDS011;65974;42.664;23.264;2023-05-23T07:30:52;24.40;;;14.23;;
77040;SDS011;65974;42.664;23.264;2023-05-23T07:33:18;20.45;;;12.52;;
77040;SDS011;65974;42.664;23.264;2023-05-23T07:35:44;25.08;;;16.33;;
77040;SDS011;65974;42.664;23.264;2023-05-23T07:38:10;27.25;;;14.98;;
77040;SDS011;65974;42.664;23.264;2023-05-23T07:40:35;25.58;;;13.32;;
77040;SDS011;65974;42.664;23.264;2023-05-23T07:43:02;25.00;;;13.68;;
77040;SDS011;65974;42.664;23.264;2023-05-23T07:45:28;23.35;;;13.80;;
77040;SDS011;65974;42.664;23.264;2023-05-23T07:47:53;20.27;;;11.57;;
77040;SDS011;65974;42.664;23.264;2023-05-23T07:50:19;25.27;;;14.93;;
77040;SDS011;65974;42.664;23.264;2023-05-23T07:52:45;25.05;;;12.95;;
77040;SDS011;65974;42.664;23.264;2023-05-23T07:55:11;24.98;;;13.70;;
77040;SDS011;65974;42.664;23.264;2023-05-23T07:57:37;29.73;;;13.93;;
77040;SDS011;65974;42.664;23.264;2023-05-23T08:00:02;28.40;;;15.82;;
77040;SDS011;65974;42.664;23.264;2023-05-23T08:02:29;26.13;;;15.23;;
77040;SDS011;65974;42.664;23.264;2023-05-23T08:04:55;26.77;;;14.52;;
77040;SDS011;65974;42.664;23.264;2023-05-23T08:07:21;28.08;;;13.80;;
77040;SDS011;65974;42.664;23.264;2023-05-23T08:09:46;21.30;;;13.13;;
77040;SDS011;65974;42.664;23.264;2023-05-23T08:12:12;21.02;;;10.82;;
77040;SDS011;65974;42.664;23.264;2023-05-23T08:14:37;17.58;;;10.45;;
77040;SDS011;65974;42.664;23.264;2023-05-23T08:17:03;21.65;;;12.23;;
77040;SDS011;65974;42.664;23.264;2023-05-23T08:19:28;21.35;;;13.10;;
77040;SDS011;65974;42.664;23.264;2023-05-23T08:21:54;25.02;;;13.80;;
77040;SDS011;65974;42.664;23.264;2023-05-23T08:24:19;27.40;;;14.32;;
77040;SDS011;65974;42.664;23.264;2023-05-23T08:26:45;23.20;;;13.98;;
77040;SDS011;65974;42.664;23.264;2023-05-23T08:29:11;21.40;;;13.35;;
77040;SDS011;65974;42.664;23.264;2023-05-23T08:31:37;24.85;;;13.85;;
77040;SDS011;65974;42.664;23.264;2023-05-23T08:34:02;25.70;;;13.30;;
77040;SDS011;65974;42.664;23.264;2023-05-23T08:36:28;21.95;;;12.80;;
77040;SDS011;65974;42.664;23.264;2023-05-23T08:38:55;24.33;;;15.00;;
77040;SDS011;65974;42.664;23.264;2023-05-23T08:41:21;24.02;;;13.23;;
77040;SDS011;65974;42.664;23.264;2023-05-23T08:43:48;29.55;;;16.73;;
77040;SDS011;65974;42.664;23.264;2023-05-23T08:46:14;24.80;;;13.10;;
77040;SDS011;65974;42.664;23.264;2023-05-23T08:48:40;20.95;;;10.90;;
77040;SDS011;65974;42.664;23.264;2023-05-23T08:51:10;21.60;;;12.48;;
77040;SDS011;65974;42.664;23.264;2023-05-23T08:53:40;19.98;;;12.07;;
77040;SDS011;65974;42.664;23.264;2023-05-23T08:56:11;20.75;;;11.43;;
77040;SDS011;65974;42.664;23.264;2023-05-23T08:58:36;18.90;;;12.70;;
77040;SDS011;65974;42.664;23.264;2023-05-23T09:01:04;14.13;;;9.57;;
77040;SDS011;65974;42.664;23.264;2023-05-23T09:03:30;13.07;;;9.02;;
77040;SDS011;65974;42.664;23.264;2023-05-23T09:05:55;21.48;;;9.80;;
77040;SDS011;65974;42.664;23.264;2023-05-23T09:08:21;13.65;;;8.68;;
77040;SDS011;65974;42.664;23.264;2023-05-23T09:10:48;21.13;;;10.23;;
77040;SDS011;65974;42.664;23.264;2023-05-23T09:13:15;13.00;;;7.63;;
77040;SDS011;65974;42.664;23.264;2023-05-23T09:16:03;11.63;;;6.47;;
77040;SDS011;65974;42.664;23.264;2023-05-23T09:21:04;9.82;;;5.57;;
77040;SDS011;65974;42.664;23.264;2023-05-23T09:23:33;9.60;;;5.47;;
77040;SDS011;65974;42.664;23.264;2023-05-23T09:26:03;5.97;;;4.53;;
77040;SDS011;65974;42.664;23.264;2023-05-23T09:28:32;7.20;;;4.38;;
77040;SDS011;65974;42.664;23.264;2023-05-23T09:31:02;10.52;;;4.28;;
77040;SDS011;65974;42.664;23.264;2023-05-23T09:36:03;7.40;;;4.47;;
77040;SDS011;65974;42.664;23.264;2023-05-23T09:38:29;10.07;;;5.00;;
77040;SDS011;65974;42.664;23.264;2023-05-23T09:40:55;7.13;;;4.70;;
77040;SDS011;65974;42.664;23.264;2023-05-23T09:43:22;10.32;;;5.05;;
77040;SDS011;65974;42.664;23.264;2023-05-23T09:45:48;9.15;;;5.30;;
77040;SDS011;65974;42.664;23.264;2023-05-23T09:48:15;6.70;;;3.85;;
77040;SDS011;65974;42.664;23.264;2023-05-23T09:50:40;7.47;;;3.97;;
77040;SDS011;65974;42.664;23.264;2023-05-23T09:53:06;5.15;;;3.63;;
77040;SDS011;65974;42.664;23.264;2023-05-23T09:55:31;6.32;;;4.10;;
77040;SDS011;65974;42.664;23.264;2023-05-23T09:57:57;8.43;;;5.32;;
77040;SDS011;65974;42.664;23.264;2023-05-23T10:00:23;10.77;;;4.22;;
77040;SDS011;65974;42.664;23.264;2023-05-23T10:08:09;7.82;;;3.95;;
77040;SDS011;65974;42.664;23.264;2023-05-23T10:13:26;8.15;;;3.83;;
77040;SDS011;65974;42.664;23.264;2023-05-23T10:15:54;6.40;;;3.53;;
77040;SDS011;65974;42.664;23.264;2023-05-23T10:18:33;5.25;;;4.20;;
77040;SDS011;65974;42.664;23.264;2023-05-23T10:21:08;6.07;;;3.22;;
77040;SDS011;65974;42.664;23.264;2023-05-23T10:23:36;5.68;;;3.72;;
77040;SDS011;65974;42.664;23.264;2023-05-23T10:26:03;6.00;;;4.13;;
77040;SDS011;65974;42.664;23.264;2023-05-23T10:28:29;6.22;;;3.70;;
77040;SDS011;65974;42.664;23.264;2023-05-23T10:30:56;6.03;;;3.25;;
77040;SDS011;65974;42.664;23.264;2023-05-23T10:33:23;7.10;;;4.03;;
77040;SDS011;65974;42.664;23.264;2023-05-23T10:35:55;6.63;;;3.70;;
77040;SDS011;65974;42.664;23.264;2023-05-23T10:41:15;6.85;;;3.13;;
77040;SDS011;65974;42.664;23.264;2023-05-23T10:43:48;6.72;;;4.20;;
77040;SDS011;65974;42.664;23.264;2023-05-23T10:46:17;6.65;;;4.25;;
77040;SDS011;65974;42.664;23.264;2023-05-23T10:48:45;8.40;;;3.45;;
77040;SDS011;65974;42.664;23.264;2023-05-23T10:51:11;7.95;;;3.67;;
77040;SDS011;65974;42.664;23.264;2023-05-23T10:53:44;4.20;;;3.30;;
77040;SDS011;65974;42.664;23.264;2023-05-23T10:56:20;6.47;;;3.40;;
77040;SDS011;65974;42.664;23.264;2023-05-23T10:58:51;8.13;;;3.35;;
77040;SDS011;65974;42.664;23.264;2023-05-23T11:01:20;7.63;;;4.00;;
77040;SDS011;65974;42.664;23.264;2023-05-23T11:06:31;7.80;;;3.70;;
77040;SDS011;65974;42.664;23.264;2023-05-23T11:14:18;5.35;;;4.07;;
77040;SDS011;65974;42.664;23.264;2023-05-23T11:16:45;5.95;;;3.15;;
77040;SDS011;65974;42.664;23.264;2023-05-23T11:21:44;5.47;;;2.95;;
77040;SDS011;65974;42.664;23.264;2023-05-23T11:24:10;5.43;;;3.45;;
77040;SDS011;65974;42.664;23.264;2023-05-23T11:26:36;5.97;;;3.72;;
77040;SDS011;65974;42.664;23.264;2023-05-23T11:29:01;6.07;;;3.85;;
77040;SDS011;65974;42.664;23.264;2023-05-23T11:31:35;8.07;;;3.75;;
77040;SDS011;65974;42.664;23.264;2023-05-23T11:34:01;6.75;;;3.55;;
77040;SDS011;65974;42.664;23.264;2023-05-23T11:36:27;8.75;;;3.67;;
77040;SDS011;65974;42.664;23.264;2023-05-23T11:38:53;4.53;;;3.35;;
77040;SDS011;65974;42.664;23.264;2023-05-23T11:41:19;6.22;;;3.83;;
77040;SDS011;65974;42.664;23.264;2023-05-23T11:43:49;4.88;;;3.30;;
77040;SDS011;65974;42.664;23.264;2023-05-23T11:46:15;6.68;;;3.72;;
77040;SDS011;65974;42.664;23.264;2023-05-23T11:48:44;5.78;;;3.08;;
77040;SDS011;65974;42.664;23.264;2023-05-23T11:51:10;6.93;;;3.70;;
77040;SDS011;65974;42.664;23.264;2023-05-23T11:53:36;6.30;;;4.22;;
77040;SDS011;65974;42.664;23.264;2023-05-23T11:56:02;4.85;;;3.55;;
77040;SDS011;65974;42.664;23.264;2023-05-23T11:58:29;5.75;;;3.80;;
77040;SDS011;65974;42.664;23.264;2023-05-23T12:00:57;7.00;;;4.15;;
77040;SDS011;65974;42.664;23.264;2023-05-23T12:08:23;5.35;;;3.55;;
77040;SDS011;65974;42.664;23.264;2023-05-23T12:10:52;4.80;;;3.53;;
77040;SDS011;65974;42.664;23.264;2023-05-23T12:13:24;5.93;;;3.92;;
77040;SDS011;65974;42.664;23.264;2023-05-23T12:15:54;6.80;;;3.53;;
77040;SDS011;65974;42.664;23.264;2023-05-23T12:18:24;6.28;;;3.42;;
77040;SDS011;65974;42.664;23.264;2023-05-23T12:20:53;4.95;;;3.20;;
77040;SDS011;65974;42.664;23.264;2023-05-23T12:23:20;5.50;;;4.38;;
77040;SDS011;65974;42.664;23.264;2023-05-23T12:25:52;5.45;;;3.80;;
77040;SDS011;65974;42.664;23.264;2023-05-23T12:28:20;5.50;;;3.95;;
77040;SDS011;65974;42.664;23.264;2023-05-23T12:30:46;5.18;;;3.22;;
77040;SDS011;65974;42.664;23.264;2023-05-23T12:33:13;7.97;;;3.45;;
77040;SDS011;65974;42.664;23.264;2023-05-23T12:35:42;6.85;;;3.63;;
77040;SDS011;65974;42.664;23.264;2023-05-23T12:38:13;5.93;;;3.03;;
77040;SDS011;65974;42.664;23.264;2023-05-23T12:40:40;5.38;;;3.10;;
77040;SDS011;65974;42.664;23.264;2023-05-23T12:43:07;5.88;;;3.33;;
77040;SDS011;65974;42.664;23.264;2023-05-23T12:45:34;5.07;;;3.30;;
77040;SDS011;65974;42.664;23.264;2023-05-23T12:48:04;7.03;;;3.50;;
77040;SDS011;65974;42.664;23.264;2023-05-23T12:50:31;5.75;;;3.95;;
77040;SDS011;65974;42.664;23.264;2023-05-23T12:52:57;5.10;;;3.33;;
77040;SDS011;65974;42.664;23.264;2023-05-23T12:55:22;4.40;;;3.10;;
77040;SDS011;65974;42.664;23.264;2023-05-23T12:57:48;5.15;;;3.47;;
77040;SDS011;65974;42.664;23.264;2023-05-23T13:00:13;5.22;;;3.22;;
77040;SDS011;65974;42.664;23.264;2023-05-23T13:02:39;6.45;;;3.75;;
77040;SDS011;65974;42.664;23.264;2023-05-23T13:05:05;4.93;;;3.40;;
77040;SDS011;65974;42.664;23.264;2023-05-23T13:07:31;7.22;;;3.55;;
77040;SDS011;65974;42.664;23.264;2023-05-23T13:09:57;6.47;;;3.67;;
77040;SDS011;65974;42.664;23.264;2023-05-23T13:12:22;7.53;;;3.08;;
77040;SDS011;65974;42.664;23.264;2023-05-23T13:14:48;5.88;;;3.35;;
77040;SDS011;65974;42.664;23.264;2023-05-23T13:17:15;5.50;;;3.25;;
77040;SDS011;65974;42.664;23.264;2023-05-23T13:19:40;4.65;;;3.30;;
77040;SDS011;65974;42.664;23.264;2023-05-23T13:22:06;5.93;;;3.17;;
77040;SDS011;65974;42.664;23.264;2023-05-23T13:24:36;5.38;;;2.83;;
77040;SDS011;65974;42.664;23.264;2023-05-23T13:27:05;5.15;;;2.80;;
77040;SDS011;65974;42.664;23.264;2023-05-23T13:29:32;6.32;;;3.03;;
77040;SDS011;65974;42.664;23.264;2023-05-23T13:31:58;4.90;;;2.88;;
77040;SDS011;65974;42.664;23.264;2023-05-23T13:34:24;5.22;;;3.33;;
77040;SDS011;65974;42.664;23.264;2023-05-23T13:36:51;5.15;;;3.35;;
77040;SDS011;65974;42.664;23.264;2023-05-23T13:39:17;11.02;;;3.15;;
77040;SDS011;65974;42.664;23.264;2023-05-23T13:41:42;4.88;;;3.40;;
77040;SDS011;65974;42.664;23.264;2023-05-23T13:44:08;6.95;;;3.45;;
77040;SDS011;65974;42.664;23.264;2023-05-23T13:46:33;5.63;;;2.88;;
77040;SDS011;65974;42.664;23.264;2023-05-23T13:48:58;5.13;;;3.05;;
77040;SDS011;65974;42.664;23.264;2023-05-23T13:51:24;5.05;;;3.42;;
77040;SDS011;65974;42.664;23.264;2023-05-23T13:53:49;5.90;;;3.30;;
77040;SDS011;65974;42.664;23.264;2023-05-23T13:56:15;5.63;;;3.40;;
77040;SDS011;65974;42.664;23.264;2023-05-23T13:58:40;7.00;;;3.40;;
77040;SDS011;65974;42.664;23.264;2023-05-23T14:01:06;7.60;;;3.78;;
77040;SDS011;65974;42.664;23.264;2023-05-23T14:03:33;4.97;;;3.20;;
77040;SDS011;65974;42.664;23.264;2023-05-23T14:05:58;4.38;;;3.13;;
77040;SDS011;65974;42.664;23.264;2023-05-23T14:08:23;6.30;;;2.85;;
77040;SDS011;65974;42.664;23.264;2023-05-23T14:10:49;5.55;;;3.03;;
77040;SDS011;65974;42.664;23.264;2023-05-23T14:13:15;6.93;;;3.42;;
77040;SDS011;65974;42.664;23.264;2023-05-23T14:15:41;4.20;;;3.10;;
77040;SDS011;65974;42.664;23.264;2023-05-23T14:18:06;5.38;;;2.97;;
77040;SDS011;65974;42.664;23.264;2023-05-23T14:20:32;6.20;;;3.42;;
77040;SDS011;65974;42.664;23.264;2023-05-23T14:22:57;5.00;;;2.95;;
77040;SDS011;65974;42.664;23.264;2023-05-23T14:25:23;5.57;;;3.60;;
77040;SDS011;65974;42.664;23.264;2023-05-23T14:27:48;5.28;;;3.10;;
77040;SDS011;65974;42.664;23.264;2023-05-23T14:30:14;5.45;;;2.78;;
77040;SDS011;65974;42.664;23.264;2023-05-23T14:32:40;7.10;;;3.53;;
77040;SDS011;65974;42.664;23.264;2023-05-23T14:35:06;7.32;;;4.80;;
77040;SDS011;65974;42.664;23.264;2023-05-23T14:37:33;6.47;;;3.90;;
77040;SDS011;65974;42.664;23.264;2023-05-23T14:39:59;6.10;;;4.22;;
77040;SDS011;65974;42.664;23.264;2023-05-23T14:42:25;7.15;;;4.13;;
77040;SDS011;65974;42.664;23.264;2023-05-23T14:44:51;5.18;;;3.83;;
77040;SDS011;65974;42.664;23.264;2023-05-23T14:47:19;5.55;;;3.92;;
77040;SDS011;65974;42.664;23.264;2023-05-23T14:49:45;5.53;;;4.15;;
77040;SDS011;65974;42.664;23.264;2023-05-23T14:52:11;7.72;;;3.90;;
77040;SDS011;65974;42.664;23.264;2023-05-23T14:54:36;8.65;;;4.05;;
77040;SDS011;65974;42.664;23.264;2023-05-23T14:57:05;5.38;;;3.33;;
77040;SDS011;65974;42.664;23.264;2023-05-23T14:59:31;6.95;;;3.85;;